createdAt,value
2023-02-25T00:02:26.415Z,8.75
2023-02-25T00:04:53.352Z,11.07
2023-02-25T00:07:19.735Z,7.07
2023-02-25T00:09:46.107Z,10.15
2023-02-25T00:12:12.491Z,10.95
2023-02-25T00:14:38.952Z,13.40
2023-02-25T00:17:05.363Z,8.25
2023-02-25T00:19:31.959Z,11.32
2023-02-25T00:21:58.295Z,13.18
2023-02-25T00:24:24.894Z,9.13
2023-02-25T00:26:51.255Z,10.95
2023-02-25T00:29:18.493Z,7.32
2023-02-25T00:31:45.058Z,9.80
2023-02-25T00:34:11.478Z,16.00
2023-02-25T00:36:37.915Z,15.23
2023-02-25T00:39:04.303Z,14.02
2023-02-25T00:41:30.830Z,13.25
2023-02-25T00:43:59.243Z,9.10
2023-02-25T00:46:26.818Z,10.18
2023-02-25T00:48:53.243Z,8.00
2023-02-25T00:51:24.841Z,16.55
2023-02-25T00:53:52.659Z,8.80
2023-02-25T00:56:20.235Z,11.85
2023-02-25T00:58:48.631Z,9.38
2023-02-25T01:01:25.923Z,14.18
2023-02-25T01:03:53.438Z,16.17
2023-02-25T01:06:20.688Z,10.75
2023-02-25T01:08:47.489Z,10.77
2023-02-25T01:11:20.915Z,17.85
2023-02-25T01:13:48.712Z,15.73
2023-02-25T01:16:17.611Z,11.40
2023-02-25T01:18:44.665Z,10.07
2023-02-25T01:21:19.499Z,13.98
2023-02-25T01:23:47.039Z,9.43
2023-02-25T01:26:13.917Z,11.30
2023-02-25T01:28:40.476Z,14.38
2023-02-25T01:31:08.908Z,13.00
2023-02-25T01:33:38.658Z,14.63
2023-02-25T01:36:08.826Z,9.77
2023-02-25T01:38:35.807Z,7.30
2023-02-25T01:41:02.724Z,18.63
2023-02-25T01:43:29.599Z,11.88
2023-02-25T01:45:56.186Z,14.68
2023-02-25T01:48:25.434Z,14.93
2023-02-25T01:50:54.681Z,12.43
2023-02-25T01:53:28.004Z,7.03
2023-02-25T01:55:56.634Z,8.57
2023-02-25T01:58:23.123Z,9.32
2023-02-25T02:00:49.624Z,12.20
2023-02-25T02:03:16.227Z,13.98
2023-02-25T02:05:51.338Z,14.30
2023-02-25T02:08:17.812Z,15.50
2023-02-25T02:10:44.155Z,15.90
2023-02-25T02:13:10.526Z,18.35
2023-02-25T02:15:40.321Z,13.50
2023-02-25T02:18:07.528Z,14.35
2023-02-25T02:20:46.254Z,14.75
2023-02-25T02:23:34.132Z,11.35
2023-02-25T02:26:31.187Z,14.35
2023-02-25T02:29:16.295Z,16.17
2023-02-25T02:32:01.613Z,12.07
2023-02-25T02:34:36.756Z,15.65
2023-02-25T02:37:29.776Z,14.13
2023-02-25T02:40:24.310Z,12.35
2023-02-25T02:45:20.932Z,10.73
2023-02-25T02:47:54.862Z,17.85
2023-02-25T02:53:00.433Z,13.50
2023-02-25T02:55:32.609Z,17.73
2023-02-25T02:58:07.967Z,13.07
2023-02-25T03:00:39.690Z,14.73
2023-02-25T03:03:14.878Z,14.50
2023-02-25T03:05:42.802Z,17.95
2023-02-25T03:08:20.458Z,13.73
2023-02-25T03:10:46.887Z,12.45
2023-02-25T03:13:13.266Z,13.88
2023-02-25T03:15:40.643Z,15.80
2023-02-25T03:18:16.866Z,18.38
2023-02-25T03:20:45.890Z,17.80
2023-02-25T03:23:18.335Z,13.15
2023-02-25T03:25:50.402Z,12.70
2023-02-25T03:28:23.715Z,15.50
2023-02-25T03:30:57.056Z,17.25
2023-02-25T03:33:52.333Z,14.70
2023-02-25T03:36:27.829Z,18.23
2023-02-25T03:38:58.428Z,12.55
2023-02-25T03:41:29.480Z,14.65
2023-02-25T03:43:56.931Z,17.95
2023-02-25T03:46:24.186Z,12.18
2023-02-25T03:48:51.830Z,11.57
2023-02-25T03:51:21.923Z,14.02
2023-02-25T03:53:50.066Z,10.82
2023-02-25T03:56:16.768Z,24.70
2023-02-25T03:58:43.935Z,17.00
2023-02-25T04:01:17.314Z,11.68
2023-02-25T04:03:43.895Z,10.07
2023-02-25T04:06:12.632Z,11.63
2023-02-25T04:08:39.137Z,10.38
2023-02-25T04:11:05.477Z,15.40
2023-02-25T04:13:31.840Z,11.55
2023-02-25T04:15:58.409Z,12.55
2023-02-25T04:18:24.888Z,8.50
2023-02-25T04:20:51.247Z,11.68
2023-02-25T04:23:17.597Z,10.25
2023-02-25T04:25:43.999Z,18.33
2023-02-25T04:28:10.869Z,18.00
2023-02-25T04:30:37.588Z,13.27
2023-02-25T04:33:04.249Z,13.45
2023-02-25T04:35:30.572Z,9.85
2023-02-25T04:37:56.919Z,9.88
2023-02-25T04:40:24.021Z,14.48
2023-02-25T04:42:50.833Z,10.15
2023-02-25T04:45:17.389Z,11.27
2023-02-25T04:47:44.219Z,11.77
2023-02-25T04:50:11.401Z,12.10
2023-02-25T04:52:37.829Z,17.58
2023-02-25T04:55:04.901Z,13.32
2023-02-25T04:57:31.252Z,13.48
2023-02-25T04:59:57.596Z,12.50
2023-02-25T05:02:23.940Z,12.43
2023-02-25T05:04:50.375Z,16.23
2023-02-25T05:07:16.807Z,17.40
2023-02-25T05:09:43.992Z,9.60
2023-02-25T05:12:10.387Z,17.65
2023-02-25T05:14:37.584Z,11.32
2023-02-25T05:17:04.634Z,11.05
2023-02-25T05:19:31.125Z,15.77
2023-02-25T05:21:57.565Z,12.93
2023-02-25T05:24:24.111Z,10.73
2023-02-25T05:26:51.562Z,11.57
2023-02-25T05:29:18.136Z,8.88
2023-02-25T05:31:44.727Z,13.52
2023-02-25T05:34:11.190Z,12.65
2023-02-25T05:36:37.547Z,8.07
2023-02-25T05:39:03.968Z,11.20
2023-02-25T05:41:30.871Z,10.38
2023-02-25T05:43:58.071Z,12.93
2023-02-25T05:46:25.660Z,9.98
2023-02-25T05:48:52.342Z,11.98
2023-02-25T05:51:20.421Z,11.95
2023-02-25T05:53:47.890Z,10.02
2023-02-25T05:56:17.286Z,19.35
2023-02-25T05:58:43.684Z,14.13
2023-02-25T06:01:13.496Z,15.52
2023-02-25T06:03:41.581Z,14.38
2023-02-25T06:06:10.156Z,10.10
2023-02-25T06:08:36.556Z,12.77
2023-02-25T06:11:06.093Z,14.15
2023-02-25T06:13:32.680Z,16.77
2023-02-25T06:15:59.009Z,10.95
2023-02-25T06:18:25.449Z,8.98
2023-02-25T06:20:51.818Z,12.63
2023-02-25T06:23:18.204Z,14.13
2023-02-25T06:25:44.552Z,13.02
2023-02-25T06:28:10.944Z,15.80
2023-02-25T06:30:37.396Z,12.73
2023-02-25T06:33:03.806Z,16.45
2023-02-25T06:35:30.602Z,16.75
2023-02-25T06:37:58.598Z,9.82
2023-02-25T06:40:25.458Z,16.95
2023-02-25T06:42:52.203Z,15.25
2023-02-25T06:45:18.541Z,17.35
2023-02-25T06:47:44.909Z,13.70
2023-02-25T06:50:12.055Z,11.80
2023-02-25T06:52:38.447Z,20.70
2023-02-25T06:55:06.704Z,14.77
2023-02-25T06:57:33.982Z,17.85
2023-02-25T07:00:00.382Z,12.02
2023-02-25T07:02:27.049Z,9.98
2023-02-25T07:04:54.927Z,15.02
2023-02-25T07:07:22.011Z,16.55
2023-02-25T07:09:48.663Z,16.20
2023-02-25T07:12:15.091Z,13.35
2023-02-25T07:14:41.672Z,13.00
2023-02-25T07:17:08.044Z,19.17
2023-02-25T07:19:34.416Z,17.10
2023-02-25T07:22:00.750Z,15.93
2023-02-25T07:24:27.485Z,18.05
2023-02-25T07:26:55.493Z,17.80
2023-02-25T07:29:22.337Z,19.50
2023-02-25T07:31:48.894Z,10.73
2023-02-25T07:34:15.534Z,12.80
2023-02-25T07:36:42.148Z,18.80
2023-02-25T07:39:11.136Z,17.08
2023-02-25T07:41:38.100Z,15.98
2023-02-25T07:44:05.406Z,20.05
2023-02-25T07:46:32.008Z,18.92
2023-02-25T07:48:58.861Z,16.45
2023-02-25T07:51:25.955Z,17.70
2023-02-25T07:53:56.305Z,13.95
2023-02-25T07:56:24.367Z,15.27
2023-02-25T07:58:50.805Z,15.93
2023-02-25T08:01:27.310Z,14.55
2023-02-25T08:03:55.730Z,9.20
2023-02-25T08:06:22.389Z,17.38
2023-02-25T08:08:51.872Z,16.48
2023-02-25T08:11:19.508Z,12.65
2023-02-25T08:13:46.160Z,16.25
2023-02-25T08:16:14.402Z,13.95
2023-02-25T08:18:42.694Z,15.15
2023-02-25T08:21:13.432Z,17.30
2023-02-25T08:23:39.942Z,11.00
2023-02-25T08:26:07.147Z,19.92
2023-02-25T08:28:36.957Z,21.40
2023-02-25T08:31:04.317Z,17.98
2023-02-25T08:33:31.083Z,17.17
2023-02-25T08:36:09.504Z,13.30
2023-02-25T08:38:37.324Z,15.10
2023-02-25T08:41:04.480Z,14.75
2023-02-25T08:43:31.956Z,17.88
2023-02-25T08:45:58.418Z,16.88
2023-02-25T08:48:24.909Z,14.70
2023-02-25T08:50:53.022Z,21.52
2023-02-25T08:53:20.327Z,15.63
2023-02-25T08:55:47.324Z,15.45
2023-02-25T08:58:14.902Z,20.60
2023-02-25T09:00:41.480Z,14.65
2023-02-25T09:03:07.904Z,16.73
2023-02-25T09:05:34.307Z,19.90
2023-02-25T09:08:00.754Z,13.05
2023-02-25T09:10:27.144Z,18.35
2023-02-25T09:12:54.831Z,15.88
2023-02-25T09:15:21.756Z,13.75
2023-02-25T09:17:48.129Z,16.90
2023-02-25T09:20:17.907Z,13.40
2023-02-25T09:22:44.334Z,14.55
2023-02-25T09:25:10.664Z,18.15
2023-02-25T09:27:37.082Z,16.23
2023-02-25T09:30:03.685Z,14.38
2023-02-25T09:32:30.172Z,15.77
2023-02-25T09:34:56.632Z,13.25
2023-02-25T09:37:23.285Z,14.15
2023-02-25T09:39:49.712Z,15.40
2023-02-25T09:42:22.594Z,9.93
2023-02-25T09:44:55.142Z,10.93
2023-02-25T09:47:28.226Z,11.93
2023-02-25T09:49:59.445Z,13.70
2023-02-25T09:52:32.042Z,12.73
2023-02-25T09:55:20.332Z,10.27
2023-02-25T09:58:02.890Z,18.40
2023-02-25T10:00:31.624Z,15.25
2023-02-25T10:03:05.465Z,12.50
2023-02-25T10:05:48.255Z,13.00
2023-02-25T10:08:25.296Z,12.85
2023-02-25T10:11:09.251Z,10.63
2023-02-25T10:13:47.471Z,11.63
2023-02-25T10:16:39.792Z,9.50
2023-02-25T10:19:24.997Z,14.68
2023-02-25T10:22:17.550Z,12.25
2023-02-25T10:24:49.615Z,9.50
2023-02-25T10:27:21.727Z,16.35
2023-02-25T10:29:51.605Z,10.93
2023-02-25T10:32:25.150Z,9.02
2023-02-25T10:34:59.022Z,14.82
2023-02-25T10:37:31.000Z,9.00
2023-02-25T10:39:59.496Z,19.77
2023-02-25T10:42:26.832Z,13.13
2023-02-25T10:44:54.840Z,10.98
2023-02-25T10:47:30.771Z,11.07
2023-02-25T10:50:15.633Z,11.77
2023-02-25T10:53:20.895Z,8.73
2023-02-25T10:55:52.135Z,12.43
2023-02-25T10:58:40.835Z,8.40
2023-02-25T11:01:22.946Z,8.95
2023-02-25T11:04:05.326Z,13.27
2023-02-25T11:06:37.078Z,9.40
2023-02-25T11:09:23.427Z,12.77
2023-02-25T11:11:52.937Z,15.00
2023-02-25T11:14:19.451Z,10.40
2023-02-25T11:16:45.948Z,14.60
2023-02-25T11:19:26.422Z,13.57
2023-02-25T11:21:53.410Z,9.82
2023-02-25T11:24:34.142Z,10.63
2023-02-25T11:27:04.015Z,10.80
2023-02-25T11:29:37.459Z,12.40
2023-02-25T11:32:17.035Z,13.23
2023-02-25T11:34:56.179Z,13.90
2023-02-25T11:40:00.774Z,11.15
2023-02-25T11:42:30.120Z,8.93
2023-02-25T11:45:01.295Z,11.50
2023-02-25T11:47:51.008Z,10.30
2023-02-25T11:50:45.339Z,11.45
2023-02-25T11:53:24.883Z,8.77
2023-02-25T11:56:09.683Z,13.00
2023-02-25T11:59:02.038Z,14.25
2023-02-25T12:01:40.901Z,13.80
2023-02-25T12:04:32.207Z,10.80
2023-02-25T12:07:32.700Z,8.10
2023-02-25T12:10:10.238Z,8.07
2023-02-25T12:13:02.900Z,9.45
2023-02-25T12:15:35.989Z,9.15
2023-02-25T12:18:21.159Z,8.97
2023-02-25T12:21:01.968Z,7.95
2023-02-25T12:23:33.534Z,7.32
2023-02-25T12:26:08.577Z,7.97
2023-02-25T12:28:49.736Z,6.07
2023-02-25T12:31:36.255Z,9.32
2023-02-25T12:34:34.596Z,5.13
2023-02-25T12:37:19.429Z,3.70
2023-02-25T12:39:48.010Z,5.50
2023-02-25T12:42:32.837Z,4.00
2023-02-25T12:45:21.099Z,6.20
2023-02-25T12:48:22.502Z,2.95
2023-02-25T12:51:13.062Z,2.90
2023-02-25T12:53:57.167Z,2.63
2023-02-25T12:56:54.569Z,3.72
2023-02-25T12:59:29.632Z,2.63
2023-02-25T13:02:53.759Z,2.70
2023-02-25T13:06:04.522Z,3.05
2023-02-25T13:08:49.171Z,4.30
2023-02-25T13:11:26.238Z,3.42
2023-02-25T13:14:12.151Z,3.30
2023-02-25T13:17:00.743Z,4.13
2023-02-25T13:19:52.488Z,4.38
2023-02-25T13:22:21.815Z,5.15
2023-02-25T13:24:56.801Z,6.07
2023-02-25T13:27:53.893Z,3.28
2023-02-25T13:30:29.307Z,2.80
2023-02-25T13:33:31.145Z,4.97
2023-02-25T13:36:30.406Z,3.97
2023-02-25T13:39:19.788Z,2.83
2023-02-25T13:42:18.001Z,3.58
2023-02-25T13:45:13.909Z,4.82
2023-02-25T13:48:15.217Z,4.03
2023-02-25T13:51:01.969Z,2.72
2023-02-25T13:53:40.334Z,1.75
2023-02-25T13:56:25.261Z,4.25
2023-02-25T13:59:45.836Z,2.67
2023-02-25T14:02:54.345Z,1.48
2023-02-25T14:05:30.509Z,3.08
2023-02-25T14:08:11.413Z,3.78
2023-02-25T14:10:52.622Z,3.47
2023-02-25T14:13:43.392Z,4.00
2023-02-25T14:16:15.491Z,3.75
2023-02-25T14:19:01.176Z,3.28
2023-02-25T14:21:35.615Z,3.17
2023-02-25T14:24:16.947Z,2.97
2023-02-25T14:27:01.535Z,1.83
2023-02-25T14:30:10.999Z,2.70
2023-02-25T14:32:54.230Z,0.75
2023-02-25T14:35:39.216Z,1.42
2023-02-25T14:38:14.904Z,0.60
2023-02-25T14:40:49.576Z,0.73
2023-02-25T14:43:32.147Z,2.17
2023-02-25T14:46:30.077Z,2.75
2023-02-25T14:49:15.014Z,2.15
2023-02-25T14:52:02.997Z,3.15
2023-02-25T14:55:03.686Z,3.10
2023-02-25T14:58:07.339Z,2.00
2023-02-25T15:00:52.458Z,1.98
2023-02-25T15:03:32.701Z,2.88
2023-02-25T15:06:18.311Z,4.47
2023-02-25T15:09:00.437Z,4.53
2023-02-25T15:11:42.566Z,3.50
2023-02-25T15:14:38.081Z,6.03
2023-02-25T15:17:27.556Z,5.38
2023-02-25T15:20:11.217Z,4.45
2023-02-25T15:22:38.503Z,5.65
2023-02-25T15:25:20.064Z,2.63
2023-02-25T15:27:51.986Z,3.85
2023-02-25T15:30:22.794Z,6.85
2023-02-25T15:33:25.735Z,7.70
2023-02-25T15:35:55.308Z,5.50
2023-02-25T15:38:39.177Z,6.65
2023-02-25T15:41:34.527Z,5.47
2023-02-25T15:44:20.802Z,3.85
2023-02-25T15:46:50.735Z,6.85
2023-02-25T15:49:17.109Z,2.63
2023-02-25T15:51:52.539Z,4.57
2023-02-25T15:54:45.760Z,4.20
2023-02-25T15:57:11.990Z,8.63
2023-02-25T15:59:44.198Z,5.43
2023-02-25T16:02:33.275Z,4.15
2023-02-25T16:05:09.688Z,4.35
2023-02-25T16:07:42.013Z,8.57
2023-02-25T16:10:24.476Z,7.47
2023-02-25T16:12:53.797Z,5.18
2023-02-25T16:15:28.630Z,8.65
2023-02-25T16:17:56.550Z,4.55
2023-02-25T16:20:30.189Z,3.67
2023-02-25T16:22:59.396Z,5.82
2023-02-25T16:25:37.275Z,4.40
2023-02-25T16:28:15.385Z,3.83
2023-02-25T16:30:47.508Z,9.35
2023-02-25T16:33:35.333Z,3.22
2023-02-25T16:36:27.371Z,2.72
2023-02-25T16:38:58.291Z,6.50
2023-02-25T16:41:36.355Z,4.63
2023-02-25T16:44:04.439Z,5.22
2023-02-25T16:46:33.431Z,4.15
2023-02-25T16:49:02.073Z,2.72
2023-02-25T16:51:43.354Z,5.95
2023-02-25T16:54:24.524Z,5.07
2023-02-25T16:56:55.674Z,2.63
2023-02-25T16:59:23.884Z,2.33
2023-02-25T17:02:02.091Z,5.03
2023-02-25T17:04:37.717Z,5.28
2023-02-25T17:07:13.627Z,4.13
2023-02-25T17:10:00.511Z,4.45
2023-02-25T17:12:35.887Z,4.40
2023-02-25T17:15:05.908Z,1.90
2023-02-25T17:17:35.778Z,6.57
2023-02-25T17:20:06.865Z,2.22
2023-02-25T17:22:35.160Z,5.70
2023-02-25T17:25:03.630Z,4.68
2023-02-25T17:27:30.112Z,4.53
2023-02-25T17:29:56.498Z,2.20
2023-02-25T17:32:23.793Z,6.45
2023-02-25T17:34:52.518Z,3.45
2023-02-25T17:37:19.541Z,2.70
2023-02-25T17:39:46.412Z,1.33
2023-02-25T17:42:24.748Z,5.50
2023-02-25T17:44:51.099Z,2.15
2023-02-25T17:47:24.595Z,3.92
2023-02-25T17:49:51.243Z,2.67
2023-02-25T17:52:33.509Z,2.70
2023-02-25T17:55:02.833Z,2.97
2023-02-25T17:57:30.337Z,2.67
2023-02-25T18:00:04.481Z,5.07
2023-02-25T18:02:37.077Z,1.65
2023-02-25T18:05:12.689Z,3.25
2023-02-25T18:07:41.678Z,2.47
2023-02-25T18:10:31.192Z,1.88
2023-02-25T18:12:58.945Z,3.20
2023-02-25T18:15:33.616Z,1.75
2023-02-25T18:18:02.647Z,2.63
2023-02-25T18:20:36.909Z,7.68
2023-02-25T18:23:15.154Z,1.33
2023-02-25T18:25:47.550Z,2.63
2023-02-25T18:28:21.790Z,2.90
2023-02-25T18:30:49.790Z,3.00
2023-02-25T18:33:17.680Z,3.08
2023-02-25T18:35:46.285Z,1.70
2023-02-25T18:38:18.512Z,2.35
2023-02-25T18:40:45.787Z,1.67
2023-02-25T18:43:16.675Z,2.28
2023-02-25T18:45:43.941Z,3.20
2023-02-25T18:48:10.420Z,4.00
2023-02-25T18:50:40.290Z,2.28
2023-02-25T18:53:06.636Z,2.67
2023-02-25T18:55:34.003Z,2.05
2023-02-25T18:58:01.077Z,2.05
2023-02-25T19:00:27.627Z,3.92
2023-02-25T19:02:55.438Z,2.20
2023-02-25T19:05:23.263Z,3.35
2023-02-25T19:07:50.370Z,2.10
2023-02-25T19:10:19.303Z,2.60
2023-02-25T19:12:48.388Z,1.65
2023-02-25T19:15:17.951Z,3.95
2023-02-25T19:17:44.537Z,2.92
2023-02-25T19:20:13.152Z,4.10
2023-02-25T19:22:43.954Z,1.83
2023-02-25T19:25:26.865Z,5.70
2023-02-25T19:27:54.582Z,1.63
2023-02-25T19:30:26.469Z,2.25
2023-02-25T19:32:53.148Z,1.30
2023-02-25T19:35:19.502Z,5.55
2023-02-25T19:37:45.838Z,4.07
2023-02-25T19:40:14.877Z,2.92
2023-02-25T19:42:42.736Z,2.08
2023-02-25T19:45:11.658Z,1.88
2023-02-25T19:47:38.041Z,1.52
2023-02-25T19:50:06.029Z,1.77
2023-02-25T19:52:36.250Z,2.50
2023-02-25T19:55:04.929Z,2.47
2023-02-25T19:57:31.716Z,2.10
2023-02-25T19:59:58.105Z,2.45
2023-02-25T20:02:24.538Z,2.20
2023-02-25T20:04:50.954Z,1.80
2023-02-25T20:07:17.422Z,3.38
2023-02-25T20:09:43.750Z,4.20
2023-02-25T20:12:13.098Z,2.00
2023-02-25T20:14:39.424Z,3.33
2023-02-25T20:17:05.794Z,2.10
2023-02-25T20:19:34.747Z,2.35
2023-02-25T20:22:02.950Z,2.38
2023-02-25T20:24:29.778Z,1.40
2023-02-25T20:26:56.236Z,2.53
2023-02-25T20:29:22.690Z,4.90
2023-02-25T20:31:49.163Z,2.13
2023-02-25T20:34:18.335Z,1.83
2023-02-25T20:36:51.312Z,4.03
2023-02-25T20:39:39.320Z,3.33
2023-02-25T20:42:19.986Z,2.55
2023-02-25T20:44:51.574Z,4.72
2023-02-25T20:47:38.652Z,3.25
2023-02-25T20:50:08.086Z,2.78
2023-02-25T20:52:34.487Z,2.08
2023-02-25T20:55:00.889Z,3.10
2023-02-25T20:57:27.359Z,2.70
2023-02-25T20:59:54.452Z,2.90
2023-02-25T21:02:21.103Z,3.20
2023-02-25T21:04:47.511Z,3.05
2023-02-25T21:07:14.240Z,2.97
2023-02-25T21:09:40.632Z,2.85
2023-02-25T21:12:07.655Z,5.35
2023-02-25T21:14:34.341Z,4.50
2023-02-25T21:17:00.765Z,2.75
2023-02-25T21:19:27.985Z,4.00
2023-02-25T21:21:55.207Z,3.72
2023-02-25T21:24:21.823Z,2.33
2023-02-25T21:26:48.206Z,2.03
2023-02-25T21:29:14.836Z,2.58
2023-02-25T21:31:42.014Z,4.38
2023-02-25T21:34:11.550Z,3.67
2023-02-25T21:36:38.111Z,2.33
2023-02-25T21:39:04.758Z,3.10
2023-02-25T21:41:31.117Z,3.30
2023-02-25T21:43:57.939Z,6.15
2023-02-25T21:46:24.803Z,2.92
2023-02-25T21:48:53.119Z,4.82
2023-02-25T21:51:23.179Z,3.33
2023-02-25T21:53:53.969Z,5.10
2023-02-25T21:56:20.442Z,2.47
2023-02-25T21:58:46.889Z,2.45
2023-02-25T22:01:14.457Z,1.63
2023-02-25T22:03:41.434Z,3.78
2023-02-25T22:06:08.236Z,4.03
2023-02-25T22:08:34.643Z,4.05
2023-02-25T22:11:01.014Z,5.80
2023-02-25T22:13:32.404Z,6.22
2023-02-25T22:16:01.079Z,3.10
2023-02-25T22:18:28.116Z,5.00
2023-02-25T22:21:05.306Z,2.53
2023-02-25T22:23:31.649Z,4.68
2023-02-25T22:26:03.256Z,3.50
2023-02-25T22:28:29.644Z,5.47
2023-02-25T22:30:56.104Z,4.68
2023-02-25T22:33:22.595Z,6.82
2023-02-25T22:36:03.224Z,3.42
2023-02-25T22:38:31.437Z,2.95
2023-02-25T22:40:58.367Z,3.38
2023-02-25T22:43:25.452Z,4.93
2023-02-25T22:45:51.852Z,4.88
2023-02-25T22:48:18.199Z,4.72
2023-02-25T22:50:48.834Z,5.18
2023-02-25T22:53:16.785Z,6.25
2023-02-25T22:55:43.705Z,3.80
2023-02-25T22:58:10.485Z,4.28
2023-02-25T23:00:41.962Z,3.65
2023-02-25T23:03:09.250Z,3.65
2023-02-25T23:05:36.403Z,2.60
2023-02-25T23:08:03.615Z,4.85
2023-02-25T23:10:30.459Z,2.22
2023-02-25T23:13:01.118Z,1.83
2023-02-25T23:15:28.312Z,4.70
2023-02-25T23:17:55.822Z,4.82
2023-02-25T23:20:23.867Z,3.53
2023-02-25T23:22:52.748Z,6.15
2023-02-25T23:25:19.849Z,6.25
2023-02-25T23:27:46.275Z,7.03
2023-02-25T23:30:12.873Z,5.07
2023-02-25T23:32:41.964Z,4.10
2023-02-25T23:35:10.503Z,5.07
2023-02-25T23:37:38.246Z,4.38
2023-02-25T23:40:07.099Z,6.35
2023-02-25T23:42:33.916Z,3.22
2023-02-25T23:45:00.396Z,4.78
2023-02-25T23:47:26.775Z,12.50
2023-02-25T23:49:53.110Z,3.50
2023-02-25T23:52:19.486Z,8.70
2023-02-25T23:54:45.870Z,7.47
2023-02-25T23:57:12.228Z,4.28
2023-02-25T23:59:38.577Z,5.28
